sensor_id;sensor_type;location;lat;lon;timestamp;pressure;altitude;pressure_sealevel;temperature;humidity
11499;BME280;5806;48.748;9.278;2023-05-31T00:00:48;101775.63;;;15.28;64.68
11499;BME280;5806;48.748;9.278;2023-05-31T00:03:15;101777.94;;;15.19;65.18
11499;BME280;5806;48.748;9.278;2023-05-31T00:05:43;101777.61;;;15.16;64.94
11499;BME280;5806;48.748;9.278;2023-05-31T00:08:10;101776.72;;;15.27;65.02
11499;BME280;5806;48.748;9.278;2023-05-31T00:10:38;101775.34;;;15.27;64.81
11499;BME280;5806;48.748;9.278;2023-05-31T00:13:05;101779.88;;;15.19;65.20
11499;BME280;5806;48.748;9.278;2023-05-31T00:15:33;101778.14;;;15.29;64.62
11499;BME280;5806;48.748;9.278;2023-05-31T00:18:01;101769.73;;;15.08;65.52
11499;BME280;5806;48.748;9.278;2023-05-31T00:20:28;101772.82;;;15.11;65.27
11499;BME280;5806;48.748;9.278;2023-05-31T00:22:56;101776.64;;;14.94;65.91
11499;BME280;5806;48.748;9.278;2023-05-31T00:25:23;101779.29;;;15.03;65.55
11499;BME280;5806;48.748;9.278;2023-05-31T00:27:51;101772.89;;;14.86;66.46
11499;BME280;5806;48.748;9.278;2023-05-31T00:30:18;101771.39;;;14.80;66.99
11499;BME280;5806;48.748;9.278;2023-05-31T00:32:46;101775.52;;;14.80;66.46
11499;BME280;5806;48.748;9.278;2023-05-31T00:35:13;101770.33;;;14.82;66.55
11499;BME280;5806;48.748;9.278;2023-05-31T00:37:41;101775.47;;;14.64;67.12
11499;BME280;5806;48.748;9.278;2023-05-31T00:40:08;101773.01;;;14.79;66.32
11499;BME280;5806;48.748;9.278;2023-05-31T00:42:36;101769.59;;;14.60;67.06
11499;BME280;5806;48.748;9.278;2023-05-31T00:45:06;101771.11;;;14.54;67.58
11499;BME280;5806;48.748;9.278;2023-05-31T00:47:35;101772.67;;;14.61;66.96
11499;BME280;5806;48.748;9.278;2023-05-31T00:50:03;101778.31;;;14.55;67.57
11499;BME280;5806;48.748;9.278;2023-05-31T00:52:31;101770.62;;;14.57;67.25
11499;BME280;5806;48.748;9.278;2023-05-31T00:55:00;101775.23;;;14.54;67.53
11499;BME280;5806;48.748;9.278;2023-05-31T00:57:30;101776.17;;;14.45;67.43
11499;BME280;5806;48.748;9.278;2023-05-31T00:59:58;101769.77;;;14.42;67.95
11499;BME280;5806;48.748;9.278;2023-05-31T01:02:26;101772.63;;;14.47;67.69
11499;BME280;5806;48.748;9.278;2023-05-31T01:04:55;101773.23;;;14.38;68.30
11499;BME280;5806;48.748;9.278;2023-05-31T01:07:23;101771.53;;;14.48;67.26
11499;BME280;5806;48.748;9.278;2023-05-31T01:09:51;101775.22;;;14.28;68.51
11499;BME280;5806;48.748;9.278;2023-05-31T01:15:13;101774.30;;;14.14;68.67
11499;BME280;5806;48.748;9.278;2023-05-31T01:17:54;101771.75;;;13.98;69.37
11499;BME280;5806;48.748;9.278;2023-05-31T01:20:25;101769.47;;;14.18;68.93
11499;BME280;5806;48.748;9.278;2023-05-31T01:28:07;101772.47;;;14.05;69.14
11499;BME280;5806;48.748;9.278;2023-05-31T01:30:38;101769.47;;;13.95;69.64
11499;BME280;5806;48.748;9.278;2023-05-31T01:33:09;101741.09;;;13.92;68.93
11499;BME280;5806;48.748;9.278;2023-05-31T01:35:37;101773.30;;;13.94;69.40
11499;BME280;5806;48.748;9.278;2023-05-31T01:38:05;101767.62;;;13.98;69.37
11499;BME280;5806;48.748;9.278;2023-05-31T01:40:33;101770.78;;;13.93;69.50
11499;BME280;5806;48.748;9.278;2023-05-31T01:43:03;101771.22;;;13.99;69.00
11499;BME280;5806;48.748;9.278;2023-05-31T01:45:31;101771.26;;;13.78;70.37
11499;BME280;5806;48.748;9.278;2023-05-31T01:48:03;101773.89;;;13.85;69.55
11499;BME280;5806;48.748;9.278;2023-05-31T01:50:33;101774.45;;;13.84;69.89
11499;BME280;5806;48.748;9.278;2023-05-31T01:53:03;101774.98;;;13.84;69.61
11499;BME280;5806;48.748;9.278;2023-05-31T01:55:31;101781.84;;;13.72;70.26
11499;BME280;5806;48.748;9.278;2023-05-31T01:58:00;101771.31;;;13.81;70.26
11499;BME280;5806;48.748;9.278;2023-05-31T02:00:29;101772.11;;;13.79;69.97
11499;BME280;5806;48.748;9.278;2023-05-31T02:02:57;101771.31;;;13.69;70.19
11499;BME280;5806;48.748;9.278;2023-05-31T02:05:25;101765.99;;;13.77;70.04
11499;BME280;5806;48.748;9.278;2023-05-31T02:07:52;101769.65;;;13.68;70.51
11499;BME280;5806;48.748;9.278;2023-05-31T02:10:21;101768.74;;;13.65;70.55
11499;BME280;5806;48.748;9.278;2023-05-31T02:12:48;101769.44;;;13.61;70.60
11499;BME280;5806;48.748;9.278;2023-05-31T02:15:17;101772.06;;;13.56;70.45
11499;BME280;5806;48.748;9.278;2023-05-31T02:17:47;101779.13;;;13.63;70.48
11499;BME280;5806;48.748;9.278;2023-05-31T02:20:16;101780.20;;;13.51;70.62
11499;BME280;5806;48.748;9.278;2023-05-31T02:22:45;101776.55;;;13.59;70.33
11499;BME280;5806;48.748;9.278;2023-05-31T02:25:14;101779.47;;;13.55;70.46
11499;BME280;5806;48.748;9.278;2023-05-31T02:27:42;101773.88;;;13.30;71.53
11499;BME280;5806;48.748;9.278;2023-05-31T02:30:10;101779.70;;;13.54;70.76
11499;BME280;5806;48.748;9.278;2023-05-31T02:32:38;101776.53;;;13.48;71.22
11499;BME280;5806;48.748;9.278;2023-05-31T02:35:08;101773.44;;;13.35;71.59
11499;BME280;5806;48.748;9.278;2023-05-31T02:37:38;101779.81;;;13.47;71.37
11499;BME280;5806;48.748;9.278;2023-05-31T02:40:06;101771.33;;;13.49;70.64
11499;BME280;5806;48.748;9.278;2023-05-31T02:42:39;101776.19;;;13.35;71.32
11499;BME280;5806;48.748;9.278;2023-05-31T02:45:10;101771.81;;;13.25;72.25
11499;BME280;5806;48.748;9.278;2023-05-31T02:47:39;101769.77;;;13.41;71.11
11499;BME280;5806;48.748;9.278;2023-05-31T02:50:08;101778.42;;;13.36;71.45
11499;BME280;5806;48.748;9.278;2023-05-31T02:52:36;101780.83;;;13.44;71.04
11499;BME280;5806;48.748;9.278;2023-05-31T02:55:04;101776.17;;;13.24;71.67
11499;BME280;5806;48.748;9.278;2023-05-31T02:57:32;101776.58;;;13.39;71.27
11499;BME280;5806;48.748;9.278;2023-05-31T03:00:01;101774.23;;;13.33;71.02
11499;BME280;5806;48.748;9.278;2023-05-31T03:02:38;101773.72;;;13.25;71.14
11499;BME280;5806;48.748;9.278;2023-05-31T03:05:06;101776.67;;;13.12;71.64
11499;BME280;5806;48.748;9.278;2023-05-31T03:07:35;101774.11;;;13.19;71.59
11499;BME280;5806;48.748;9.278;2023-05-31T03:10:03;101769.61;;;13.04;71.87
11499;BME280;5806;48.748;9.278;2023-05-31T03:12:31;101768.87;;;13.18;71.54
11499;BME280;5806;48.748;9.278;2023-05-31T03:14:59;101772.25;;;13.11;71.56
11499;BME280;5806;48.748;9.278;2023-05-31T03:17:26;101769.67;;;13.07;71.72
11499;BME280;5806;48.748;9.278;2023-05-31T03:19:54;101767.73;;;13.07;71.87
11499;BME280;5806;48.748;9.278;2023-05-31T03:22:21;101770.48;;;13.07;71.50
11499;BME280;5806;48.748;9.278;2023-05-31T03:24:50;101768.39;;;13.00;71.89
11499;BME280;5806;48.748;9.278;2023-05-31T03:27:17;101764.41;;;12.87;72.28
11499;BME280;5806;48.748;9.278;2023-05-31T03:29:48;101766.80;;;13.02;72.05
11499;BME280;5806;48.748;9.278;2023-05-31T03:32:19;101769.70;;;12.98;72.11
11499;BME280;5806;48.748;9.278;2023-05-31T03:34:47;101764.23;;;12.91;72.28
11499;BME280;5806;48.748;9.278;2023-05-31T03:37:15;101770.81;;;12.99;72.06
11499;BME280;5806;48.748;9.278;2023-05-31T03:39:42;101769.66;;;12.89;72.17
11499;BME280;5806;48.748;9.278;2023-05-31T03:42:10;101767.02;;;12.82;72.67
11499;BME280;5806;48.748;9.278;2023-05-31T03:44:38;101766.69;;;12.90;72.43
11499;BME280;5806;48.748;9.278;2023-05-31T03:47:06;101768.16;;;13.02;71.91
11499;BME280;5806;48.748;9.278;2023-05-31T03:49:34;101765.09;;;13.01;71.99
11499;BME280;5806;48.748;9.278;2023-05-31T03:52:01;101762.58;;;12.99;72.14
11499;BME280;5806;48.748;9.278;2023-05-31T03:54:30;101767.77;;;12.89;72.66
11499;BME280;5806;48.748;9.278;2023-05-31T03:56:57;101763.62;;;13.07;71.88
11499;BME280;5806;48.748;9.278;2023-05-31T03:59:25;101769.08;;;12.87;72.47
11499;BME280;5806;48.748;9.278;2023-05-31T04:01:53;101768.39;;;13.00;71.76
11499;BME280;5806;48.748;9.278;2023-05-31T04:04:21;101768.13;;;12.93;72.50
11499;BME280;5806;48.748;9.278;2023-05-31T04:06:48;101771.59;;;12.88;72.82
11499;BME280;5806;48.748;9.278;2023-05-31T04:09:16;101769.01;;;12.84;72.85
11499;BME280;5806;48.748;9.278;2023-05-31T04:11:44;101767.31;;;13.01;72.59
11499;BME280;5806;48.748;9.278;2023-05-31T04:14:12;101759.89;;;13.11;72.25
11499;BME280;5806;48.748;9.278;2023-05-31T04:16:39;101765.77;;;12.96;72.72
11499;BME280;5806;48.748;9.278;2023-05-31T04:19:07;101768.45;;;12.85;73.21
11499;BME280;5806;48.748;9.278;2023-05-31T04:21:35;101772.35;;;13.04;72.69
11499;BME280;5806;48.748;9.278;2023-05-31T04:24:02;101768.06;;;12.99;73.17
11499;BME280;5806;48.748;9.278;2023-05-31T04:26:31;101767.67;;;13.05;73.03
11499;BME280;5806;48.748;9.278;2023-05-31T04:29:00;101771.37;;;12.99;73.42
11499;BME280;5806;48.748;9.278;2023-05-31T04:31:28;101773.10;;;12.93;73.42
11499;BME280;5806;48.748;9.278;2023-05-31T04:33:56;101777.52;;;13.03;72.57
11499;BME280;5806;48.748;9.278;2023-05-31T04:36:25;101777.84;;;13.04;72.87
11499;BME280;5806;48.748;9.278;2023-05-31T04:38:53;101781.27;;;12.91;72.63
11499;BME280;5806;48.748;9.278;2023-05-31T04:41:22;101778.20;;;13.08;72.60
11499;BME280;5806;48.748;9.278;2023-05-31T04:43:56;101775.48;;;12.99;72.71
11499;BME280;5806;48.748;9.278;2023-05-31T04:46:23;101775.69;;;13.06;72.68
11499;BME280;5806;48.748;9.278;2023-05-31T04:48:50;101780.13;;;12.98;72.91
11499;BME280;5806;48.748;9.278;2023-05-31T04:51:18;101782.48;;;13.04;72.70
11499;BME280;5806;48.748;9.278;2023-05-31T04:53:46;101771.37;;;12.99;73.41
11499;BME280;5806;48.748;9.278;2023-05-31T04:56:14;101773.16;;;12.96;73.55
11499;BME280;5806;48.748;9.278;2023-05-31T04:58:41;101777.84;;;13.04;73.58
11499;BME280;5806;48.748;9.278;2023-05-31T05:01:09;101772.94;;;13.06;73.64
11499;BME280;5806;48.748;9.278;2023-05-31T05:03:38;101778.56;;;13.20;73.00
11499;BME280;5806;48.748;9.278;2023-05-31T05:06:13;101779.44;;;13.23;72.88
11499;BME280;5806;48.748;9.278;2023-05-31T05:08:44;101776.53;;;13.27;73.23
11499;BME280;5806;48.748;9.278;2023-05-31T05:11:11;101789.01;;;13.41;73.02
11499;BME280;5806;48.748;9.278;2023-05-31T05:16:17;101788.55;;;13.35;73.66
11499;BME280;5806;48.748;9.278;2023-05-31T05:18:45;101785.47;;;13.43;73.41
11499;BME280;5806;48.748;9.278;2023-05-31T05:21:12;101788.09;;;13.38;73.87
11499;BME280;5806;48.748;9.278;2023-05-31T05:23:39;101783.64;;;13.46;74.00
11499;BME280;5806;48.748;9.278;2023-05-31T05:26:08;101788.11;;;13.50;74.11
11499;BME280;5806;48.748;9.278;2023-05-31T05:28:36;101780.67;;;13.59;73.83
11499;BME280;5806;48.748;9.278;2023-05-31T05:31:04;101780.61;;;13.57;73.97
11499;BME280;5806;48.748;9.278;2023-05-31T05:33:32;101783.48;;;13.62;74.37
11499;BME280;5806;48.748;9.278;2023-05-31T05:35:59;101786.14;;;13.68;74.19
11499;BME280;5806;48.748;9.278;2023-05-31T05:38:28;101786.97;;;13.69;74.33
11499;BME280;5806;48.748;9.278;2023-05-31T05:40:55;101784.59;;;13.72;74.49
11499;BME280;5806;48.748;9.278;2023-05-31T05:43:23;101791.41;;;13.81;74.45
11499;BME280;5806;48.748;9.278;2023-05-31T05:45:50;101780.83;;;13.87;74.44
11499;BME280;5806;48.748;9.278;2023-05-31T05:48:18;101784.42;;;13.99;74.08
11499;BME280;5806;48.748;9.278;2023-05-31T05:50:45;101789.62;;;14.10;73.80
11499;BME280;5806;48.748;9.278;2023-05-31T05:53:13;101789.33;;;14.09;74.16
11499;BME280;5806;48.748;9.278;2023-05-31T05:55:47;101789.87;;;14.20;73.92
11499;BME280;5806;48.748;9.278;2023-05-31T05:58:10;101785.59;;;14.24;74.14
11499;BME280;5806;48.748;9.278;2023-05-31T06:00:38;101791.20;;;14.29;73.97
11499;BME280;5806;48.748;9.278;2023-05-31T06:03:06;101791.39;;;14.25;74.30
11499;BME280;5806;48.748;9.278;2023-05-31T06:05:34;101789.41;;;14.34;74.14
11499;BME280;5806;48.748;9.278;2023-05-31T06:08:01;101787.77;;;14.47;73.24
11499;BME280;5806;48.748;9.278;2023-05-31T06:10:29;101788.05;;;14.86;71.56
11499;BME280;5806;48.748;9.278;2023-05-31T06:12:56;101789.44;;;14.74;72.89
11499;BME280;5806;48.748;9.278;2023-05-31T06:15:24;101791.95;;;14.75;72.59
11499;BME280;5806;48.748;9.278;2023-05-31T06:17:51;101792.99;;;14.86;72.14
11499;BME280;5806;48.748;9.278;2023-05-31T06:20:19;101795.06;;;15.07;71.54
11499;BME280;5806;48.748;9.278;2023-05-31T06:22:46;101792.28;;;15.19;70.95
11499;BME280;5806;48.748;9.278;2023-05-31T06:25:16;101787.50;;;15.28;70.14
11499;BME280;5806;48.748;9.278;2023-05-31T06:27:44;101789.21;;;15.46;69.03
11499;BME280;5806;48.748;9.278;2023-05-31T06:30:12;101791.09;;;15.73;67.83
11499;BME280;5806;48.748;9.278;2023-05-31T06:32:40;101796.17;;;15.98;66.43
11499;BME280;5806;48.748;9.278;2023-05-31T06:35:08;101794.38;;;16.06;65.66
11499;BME280;5806;48.748;9.278;2023-05-31T06:37:36;101800.73;;;15.90;67.20
11499;BME280;5806;48.748;9.278;2023-05-31T06:40:04;101785.09;;;16.12;66.41
11499;BME280;5806;48.748;9.278;2023-05-31T06:42:31;101793.16;;;16.16;65.03
11499;BME280;5806;48.748;9.278;2023-05-31T06:44:59;101788.25;;;16.39;65.24
11499;BME280;5806;48.748;9.278;2023-05-31T06:47:26;101779.61;;;16.71;64.16
11499;BME280;5806;48.748;9.278;2023-05-31T06:49:53;101778.06;;;17.04;62.46
11499;BME280;5806;48.748;9.278;2023-05-31T06:52:21;101782.62;;;17.15;61.74
11499;BME280;5806;48.748;9.278;2023-05-31T06:54:50;101774.75;;;17.29;60.74
11499;BME280;5806;48.748;9.278;2023-05-31T06:57:18;101779.09;;;17.44;60.60
11499;BME280;5806;48.748;9.278;2023-05-31T06:59:45;101775.61;;;17.56;60.74
11499;BME280;5806;48.748;9.278;2023-05-31T07:02:13;101772.52;;;17.52;60.50
11499;BME280;5806;48.748;9.278;2023-05-31T07:04:41;101774.89;;;17.68;60.85
11499;BME280;5806;48.748;9.278;2023-05-31T07:07:08;101767.48;;;17.76;60.29
11499;BME280;5806;48.748;9.278;2023-05-31T07:09:36;101770.84;;;17.83;60.50
11499;BME280;5806;48.748;9.278;2023-05-31T07:12:04;101774.19;;;17.85;60.21
11499;BME280;5806;48.748;9.278;2023-05-31T07:14:32;101778.90;;;17.87;58.08
11499;BME280;5806;48.748;9.278;2023-05-31T07:16:59;101769.69;;;17.76;61.04
11499;BME280;5806;48.748;9.278;2023-05-31T07:19:28;101774.16;;;17.80;61.44
11499;BME280;5806;48.748;9.278;2023-05-31T07:21:56;101777.72;;;17.78;59.66
11499;BME280;5806;48.748;9.278;2023-05-31T07:24:23;101770.92;;;17.61;61.35
11499;BME280;5806;48.748;9.278;2023-05-31T07:26:51;101771.22;;;17.60;61.03
11499;BME280;5806;48.748;9.278;2023-05-31T07:29:18;101771.03;;;17.71;60.39
11499;BME280;5806;48.748;9.278;2023-05-31T07:31:46;101768.16;;;17.93;55.80
11499;BME280;5806;48.748;9.278;2023-05-31T07:34:13;101764.70;;;18.15;53.54
11499;BME280;5806;48.748;9.278;2023-05-31T07:36:41;101766.33;;;18.45;50.86
11499;BME280;5806;48.748;9.278;2023-05-31T07:39:08;101761.14;;;18.17;54.88
11499;BME280;5806;48.748;9.278;2023-05-31T07:41:37;101760.73;;;18.40;50.74
11499;BME280;5806;48.748;9.278;2023-05-31T07:44:04;101758.28;;;18.43;51.72
11499;BME280;5806;48.748;9.278;2023-05-31T07:46:32;101755.89;;;18.69;48.30
11499;BME280;5806;48.748;9.278;2023-05-31T07:48:59;101756.20;;;18.73;50.47
11499;BME280;5806;48.748;9.278;2023-05-31T07:51:29;101762.72;;;18.47;52.13
11499;BME280;5806;48.748;9.278;2023-05-31T07:53:56;101760.71;;;18.96;47.97
11499;BME280;5806;48.748;9.278;2023-05-31T07:56:24;101759.33;;;18.99;45.36
11499;BME280;5806;48.748;9.278;2023-05-31T07:58:51;101751.91;;;19.22;46.50
11499;BME280;5806;48.748;9.278;2023-05-31T08:01:19;101755.94;;;18.77;50.56
11499;BME280;5806;48.748;9.278;2023-05-31T08:03:46;101757.86;;;18.74;49.19
11499;BME280;5806;48.748;9.278;2023-05-31T08:06:15;101752.13;;;19.00;46.27
11499;BME280;5806;48.748;9.278;2023-05-31T08:08:44;101751.13;;;19.37;44.66
11499;BME280;5806;48.748;9.278;2023-05-31T08:11:11;101758.06;;;19.49;45.07
11499;BME280;5806;48.748;9.278;2023-05-31T08:13:39;101752.52;;;19.39;46.96
11499;BME280;5806;48.748;9.278;2023-05-31T08:16:06;101748.89;;;19.36;45.42
11499;BME280;5806;48.748;9.278;2023-05-31T08:18:34;101751.67;;;19.39;45.43
11499;BME280;5806;48.748;9.278;2023-05-31T08:21:01;101751.09;;;19.24;47.90
11499;BME280;5806;48.748;9.278;2023-05-31T08:23:29;101755.30;;;19.87;42.90
11499;BME280;5806;48.748;9.278;2023-05-31T08:25:57;101744.48;;;19.78;42.92
11499;BME280;5806;48.748;9.278;2023-05-31T08:28:24;101740.59;;;19.76;43.60
11499;BME280;5806;48.748;9.278;2023-05-31T08:30:51;101736.41;;;20.06;42.28
11499;BME280;5806;48.748;9.278;2023-05-31T08:33:19;101739.20;;;20.11;39.75
11499;BME280;5806;48.748;9.278;2023-05-31T08:35:46;101739.20;;;20.11;39.75
11499;BME280;5806;48.748;9.278;2023-05-31T08:38:14;101743.38;;;19.86;43.40
11499;BME280;5806;48.748;9.278;2023-05-31T08:40:41;101738.35;;;20.03;40.95
11499;BME280;5806;48.748;9.278;2023-05-31T08:43:11;101736.67;;;20.25;40.85
11499;BME280;5806;48.748;9.278;2023-05-31T08:45:44;101726.64;;;20.34;39.97
11499;BME280;5806;48.748;9.278;2023-05-31T08:48:17;101723.06;;;20.23;41.75
11499;BME280;5806;48.748;9.278;2023-05-31T08:50:45;101723.06;;;20.23;41.75
11499;BME280;5806;48.748;9.278;2023-05-31T08:53:14;101727.98;;;20.44;40.23
11499;BME280;5806;48.748;9.278;2023-05-31T08:55:45;101726.88;;;20.40;40.53
11499;BME280;5806;48.748;9.278;2023-05-31T08:58:14;101726.58;;;20.51;40.04
11499;BME280;5806;48.748;9.278;2023-05-31T09:00:42;101723.55;;;20.40;42.07
11499;BME280;5806;48.748;9.278;2023-05-31T09:03:12;101721.39;;;20.17;41.39
11499;BME280;5806;48.748;9.278;2023-05-31T09:05:39;101713.00;;;20.37;42.27
11499;BME280;5806;48.748;9.278;2023-05-31T09:08:07;101717.70;;;20.44;41.65
11499;BME280;5806;48.748;9.278;2023-05-31T09:10:35;101706.05;;;20.37;42.91
11499;BME280;5806;48.748;9.278;2023-05-31T09:13:03;101706.05;;;20.37;42.91
11499;BME280;5806;48.748;9.278;2023-05-31T09:15:32;101715.72;;;20.55;42.03
11499;BME280;5806;48.748;9.278;2023-05-31T09:18:11;101714.90;;;20.49;40.16
11499;BME280;5806;48.748;9.278;2023-05-31T09:20:40;101713.17;;;20.66;38.15
11499;BME280;5806;48.748;9.278;2023-05-31T09:23:08;101713.72;;;20.65;40.54
11499;BME280;5806;48.748;9.278;2023-05-31T09:25:46;101711.52;;;20.65;41.70
11499;BME280;5806;48.748;9.278;2023-05-31T09:28:18;101702.62;;;20.60;40.17
11499;BME280;5806;48.748;9.278;2023-05-31T09:30:44;101703.60;;;20.87;41.54
11499;BME280;5806;48.748;9.278;2023-05-31T09:33:13;101701.73;;;20.72;38.72
11499;BME280;5806;48.748;9.278;2023-05-31T09:35:57;101697.31;;;21.17;38.08
11499;BME280;5806;48.748;9.278;2023-05-31T09:38:32;101690.47;;;21.00;37.96
11499;BME280;5806;48.748;9.278;2023-05-31T09:41:20;101692.95;;;21.04;37.91
11499;BME280;5806;48.748;9.278;2023-05-31T09:43:49;101681.87;;;20.99;38.14
11499;BME280;5806;48.748;9.278;2023-05-31T09:46:21;101675.36;;;21.13;38.77
11499;BME280;5806;48.748;9.278;2023-05-31T09:49:03;101679.27;;;21.48;36.90
11499;BME280;5806;48.748;9.278;2023-05-31T09:51:31;101674.95;;;21.32;38.33
11499;BME280;5806;48.748;9.278;2023-05-31T09:54:08;101675.91;;;21.51;41.65
11499;BME280;5806;48.748;9.278;2023-05-31T09:56:38;101671.38;;;21.27;38.91
11499;BME280;5806;48.748;9.278;2023-05-31T09:59:12;101659.81;;;21.46;39.82
11499;BME280;5806;48.748;9.278;2023-05-31T10:01:49;101661.61;;;21.29;37.52
11499;BME280;5806;48.748;9.278;2023-05-31T10:04:22;101657.63;;;21.40;39.96
11499;BME280;5806;48.748;9.278;2023-05-31T10:06:55;101653.71;;;21.41;39.75
11499;BME280;5806;48.748;9.278;2023-05-31T10:09:33;101647.91;;;21.71;36.24
11499;BME280;5806;48.748;9.278;2023-05-31T10:12:05;101649.35;;;21.61;38.57
11499;BME280;5806;48.748;9.278;2023-05-31T10:14:38;101649.56;;;21.70;34.63
11499;BME280;5806;48.748;9.278;2023-05-31T10:17:09;101651.13;;;21.81;36.92
11499;BME280;5806;48.748;9.278;2023-05-31T10:19:44;101654.77;;;21.48;36.40
11499;BME280;5806;48.748;9.278;2023-05-31T10:22:09;101654.63;;;21.63;36.18
11499;BME280;5806;48.748;9.278;2023-05-31T10:24:40;101634.13;;;21.82;35.05
11499;BME280;5806;48.748;9.278;2023-05-31T10:27:17;101635.77;;;21.55;36.83
11499;BME280;5806;48.748;9.278;2023-05-31T10:29:48;101634.56;;;21.66;37.05
11499;BME280;5806;48.748;9.278;2023-05-31T10:32:22;101631.46;;;21.72;35.46
11499;BME280;5806;48.748;9.278;2023-05-31T10:34:49;101636.20;;;21.95;37.07
11499;BME280;5806;48.748;9.278;2023-05-31T10:37:18;101624.05;;;22.12;37.92
11499;BME280;5806;48.748;9.278;2023-05-31T10:39:53;101628.13;;;21.96;36.63
11499;BME280;5806;48.748;9.278;2023-05-31T10:42:27;101618.73;;;22.13;35.19
11499;BME280;5806;48.748;9.278;2023-05-31T10:45:02;101625.44;;;22.12;36.74
11499;BME280;5806;48.748;9.278;2023-05-31T10:47:39;101613.78;;;22.08;38.28
11499;BME280;5806;48.748;9.278;2023-05-31T10:50:02;101610.66;;;22.12;36.12
11499;BME280;5806;48.748;9.278;2023-05-31T10:52:30;101605.70;;;22.30;35.17
11499;BME280;5806;48.748;9.278;2023-05-31T10:55:19;101611.88;;;22.27;35.49
11499;BME280;5806;48.748;9.278;2023-05-31T10:57:56;101608.45;;;22.32;37.43
11499;BME280;5806;48.748;9.278;2023-05-31T11:00:21;101601.04;;;22.44;37.40
11499;BME280;5806;48.748;9.278;2023-05-31T11:02:51;101607.08;;;22.53;35.82
11499;BME280;5806;48.748;9.278;2023-05-31T11:05:22;101601.47;;;22.74;34.29
11499;BME280;5806;48.748;9.278;2023-05-31T11:07:52;101607.80;;;22.40;35.04
11499;BME280;5806;48.748;9.278;2023-05-31T11:10:30;101602.05;;;22.53;36.55
11499;BME280;5806;48.748;9.278;2023-05-31T11:13:03;101596.98;;;22.57;35.91
11499;BME280;5806;48.748;9.278;2023-05-31T11:15:41;101591.03;;;22.43;35.94
11499;BME280;5806;48.748;9.278;2023-05-31T11:18:23;101584.55;;;22.68;35.72
11499;BME280;5806;48.748;9.278;2023-05-31T11:20:52;101591.36;;;22.78;34.59
11499;BME280;5806;48.748;9.278;2023-05-31T11:23:24;101587.48;;;22.58;35.09
11499;BME280;5806;48.748;9.278;2023-05-31T11:26:15;101583.30;;;22.58;34.48
11499;BME280;5806;48.748;9.278;2023-05-31T11:28:58;101584.95;;;22.59;33.92
11499;BME280;5806;48.748;9.278;2023-05-31T11:34:24;101574.70;;;22.73;36.58
11499;BME280;5806;48.748;9.278;2023-05-31T11:36:52;101578.62;;;22.91;35.55
11499;BME280;5806;48.748;9.278;2023-05-31T11:39:20;101573.44;;;22.82;35.86
11499;BME280;5806;48.748;9.278;2023-05-31T11:41:48;101570.30;;;22.86;34.64
11499;BME280;5806;48.748;9.278;2023-05-31T11:44:20;101562.13;;;22.92;35.07
11499;BME280;5806;48.748;9.278;2023-05-31T11:46:47;101572.73;;;22.74;35.87
11499;BME280;5806;48.748;9.278;2023-05-31T11:49:16;101567.41;;;22.93;33.93
11499;BME280;5806;48.748;9.278;2023-05-31T11:51:44;101560.25;;;23.03;33.22
11499;BME280;5806;48.748;9.278;2023-05-31T11:54:11;101556.30;;;22.91;34.09
11499;BME280;5806;48.748;9.278;2023-05-31T11:56:41;101545.65;;;23.09;35.58
11499;BME280;5806;48.748;9.278;2023-05-31T11:59:09;101551.88;;;23.03;35.90
11499;BME280;5806;48.748;9.278;2023-05-31T12:01:39;101554.22;;;23.47;34.93
11499;BME280;5806;48.748;9.278;2023-05-31T12:04:08;101550.03;;;23.15;35.14
11499;BME280;5806;48.748;9.278;2023-05-31T12:06:36;101552.91;;;23.26;34.47
11499;BME280;5806;48.748;9.278;2023-05-31T12:09:03;101548.22;;;23.24;35.16
11499;BME280;5806;48.748;9.278;2023-05-31T12:11:34;101548.95;;;23.29;33.61
11499;BME280;5806;48.748;9.278;2023-05-31T12:14:02;101541.00;;;23.20;34.79
11499;BME280;5806;48.748;9.278;2023-05-31T12:16:29;101534.39;;;23.14;35.77
11499;BME280;5806;48.748;9.278;2023-05-31T12:18:57;101533.23;;;23.17;36.09
11499;BME280;5806;48.748;9.278;2023-05-31T12:21:24;101536.38;;;23.13;34.63
11499;BME280;5806;48.748;9.278;2023-05-31T12:23:53;101525.56;;;23.09;36.15
11499;BME280;5806;48.748;9.278;2023-05-31T12:26:22;101528.80;;;23.14;36.86
11499;BME280;5806;48.748;9.278;2023-05-31T12:28:51;101523.81;;;23.13;35.79
11499;BME280;5806;48.748;9.278;2023-05-31T12:31:23;101520.70;;;23.47;37.05
11499;BME280;5806;48.748;9.278;2023-05-31T12:34:10;101521.94;;;23.55;36.14
11499;BME280;5806;48.748;9.278;2023-05-31T12:36:49;101518.04;;;23.39;37.02
11499;BME280;5806;48.748;9.278;2023-05-31T12:39:20;101519.41;;;23.56;36.59
11499;BME280;5806;48.748;9.278;2023-05-31T12:41:49;101515.34;;;23.78;37.37
11499;BME280;5806;48.748;9.278;2023-05-31T12:44:19;101514.34;;;23.58;36.37
11499;BME280;5806;48.748;9.278;2023-05-31T12:46:50;101510.45;;;23.43;37.78
11499;BME280;5806;48.748;9.278;2023-05-31T12:49:22;101512.81;;;23.35;37.26
11499;BME280;5806;48.748;9.278;2023-05-31T12:52:00;101503.98;;;23.58;38.89
11499;BME280;5806;48.748;9.278;2023-05-31T12:54:31;101511.28;;;23.70;37.86
11499;BME280;5806;48.748;9.278;2023-05-31T12:57:00;101504.33;;;23.40;37.58
11499;BME280;5806;48.748;9.278;2023-05-31T12:59:29;101509.11;;;23.40;38.59
11499;BME280;5806;48.748;9.278;2023-05-31T13:01:58;101501.30;;;23.53;38.48
11499;BME280;5806;48.748;9.278;2023-05-31T13:04:26;101494.48;;;23.46;38.80
11499;BME280;5806;48.748;9.278;2023-05-31T13:06:54;101491.94;;;23.47;39.40
11499;BME280;5806;48.748;9.278;2023-05-31T13:09:23;101496.91;;;23.50;38.54
11499;BME280;5806;48.748;9.278;2023-05-31T13:11:51;101493.34;;;23.47;38.36
11499;BME280;5806;48.748;9.278;2023-05-31T13:14:20;101488.55;;;23.63;38.62
11499;BME280;5806;48.748;9.278;2023-05-31T13:16:48;101477.37;;;23.50;37.92
11499;BME280;5806;48.748;9.278;2023-05-31T13:19:16;101480.11;;;23.66;38.45
11499;BME280;5806;48.748;9.278;2023-05-31T13:21:43;101480.30;;;23.69;38.26
11499;BME280;5806;48.748;9.278;2023-05-31T13:24:11;101479.20;;;23.81;37.32